Bratislava, Slovakia
Current Conditions -  °F | °C
As of 7:00 PM on Saturday 20 Dec 2014 (Local Time) from LZIB Reporting Station
Clear Clear  
Wind Chill: 41°   Ceiling: Unl
Heat Index: 48°   Visibility: 6mi
Dew Point: 36°   Wind: 20mph
Humidity: 62%   Direction: 280°W
Pressure: 30.06"   Gusts: NA
Location:  48.16°N, 17.13°E
Report Text: LZIB 201700Z 28017KT CAVOK 09/02 Q1018 NOSIG
Loading
Personal Weather Stations






























Interactive Weather Map New forecast layout! Learn more

10-Day Weather Forecast

Advertisements
Track Severe Weather on mobile